Terminal Aerodrome Forecast
Issued by NWS

Home | Current Version | Previous Version | Text Only | Print | Product List | Glossary On
Versions: 1 2 3 4 5 6 7 8 9 10 11 12 13 14 15 16 17 18 19 20
000
FTUS46 KSEW 210200 AAB
TAFBLI
TAF AMD
KBLI 210215Z 2102/2124 14007KT P6SM -SHRA SCT028 OVC060
      TEMPO 2102/2105 SHRA OVC028
     FM210900 15010KT P6SM VCSH OVC035
     FM211800 16013G20KT P6SM OVC030=

USA.gov is the U.S. government's official web portal to all federal, state and local government web resources and services.